sensor_id;sensor_type;location;lat;lon;timestamp;P1;durP1;ratioP1;P2;durP2;ratioP2
51438;SDS011;38816;51.142;-0.974;2022-11-14T00:02:04;362.83;;;27.20;;
51438;SDS011;38816;51.142;-0.974;2022-11-14T00:04:29;468.80;;;28.55;;
51438;SDS011;38816;51.142;-0.974;2022-11-14T00:06:55;374.38;;;28.20;;
51438;SDS011;38816;51.142;-0.974;2022-11-14T00:09:23;477.90;;;30.83;;
51438;SDS011;38816;51.142;-0.974;2022-11-14T00:11:49;339.48;;;27.60;;
51438;SDS011;38816;51.142;-0.974;2022-11-14T00:14:15;270.25;;;24.55;;
51438;SDS011;38816;51.142;-0.974;2022-11-14T00:16:40;280.92;;;25.02;;
51438;SDS011;38816;51.142;-0.974;2022-11-14T00:19:06;341.25;;;26.77;;
51438;SDS011;38816;51.142;-0.974;2022-11-14T00:21:31;517.50;;;32.08;;
51438;SDS011;38816;51.142;-0.974;2022-11-14T00:23:56;461.77;;;28.83;;
51438;SDS011;38816;51.142;-0.974;2022-11-14T00:26:22;302.58;;;25.08;;
51438;SDS011;38816;51.142;-0.974;2022-11-14T00:28:47;503.92;;;29.20;;
51438;SDS011;38816;51.142;-0.974;2022-11-14T00:31:12;449.60;;;28.20;;
51438;SDS011;38816;51.142;-0.974;2022-11-14T00:33:38;389.73;;;27.35;;
51438;SDS011;38816;51.142;-0.974;2022-11-14T00:36:03;398.92;;;23.98;;
51438;SDS011;38816;51.142;-0.974;2022-11-14T00:38:29;417.48;;;25.20;;
51438;SDS011;38816;51.142;-0.974;2022-11-14T00:40:54;395.73;;;25.52;;
51438;SDS011;38816;51.142;-0.974;2022-11-14T00:43:20;437.92;;;26.45;;
51438;SDS011;38816;51.142;-0.974;2022-11-14T00:45:45;433.38;;;25.85;;
51438;SDS011;38816;51.142;-0.974;2022-11-14T00:48:11;423.70;;;26.17;;
51438;SDS011;38816;51.142;-0.974;2022-11-14T00:50:37;482.98;;;27.55;;
51438;SDS011;38816;51.142;-0.974;2022-11-14T00:53:02;358.65;;;26.40;;
51438;SDS011;38816;51.142;-0.974;2022-11-14T00:55:28;455.05;;;27.60;;
51438;SDS011;38816;51.142;-0.974;2022-11-14T00:57:53;529.67;;;29.85;;
51438;SDS011;38816;51.142;-0.974;2022-11-14T01:00:19;431.00;;;27.88;;
51438;SDS011;38816;51.142;-0.974;2022-11-14T01:02:44;408.85;;;25.60;;
51438;SDS011;38816;51.142;-0.974;2022-11-14T01:05:09;433.38;;;26.88;;
51438;SDS011;38816;51.142;-0.974;2022-11-14T01:07:35;408.23;;;26.27;;
51438;SDS011;38816;51.142;-0.974;2022-11-14T01:10:00;366.48;;;25.17;;
51438;SDS011;38816;51.142;-0.974;2022-11-14T01:12:26;420.58;;;26.83;;
51438;SDS011;38816;51.142;-0.974;2022-11-14T01:14:51;483.95;;;28.35;;
51438;SDS011;38816;51.142;-0.974;2022-11-14T01:17:16;513.63;;;29.67;;
51438;SDS011;38816;51.142;-0.974;2022-11-14T01:19:42;506.95;;;31.98;;
51438;SDS011;38816;51.142;-0.974;2022-11-14T01:22:07;493.02;;;28.23;;
51438;SDS011;38816;51.142;-0.974;2022-11-14T01:24:33;392.92;;;27.98;;
51438;SDS011;38816;51.142;-0.974;2022-11-14T01:26:59;460.85;;;28.95;;
51438;SDS011;38816;51.142;-0.974;2022-11-14T01:29:25;500.83;;;29.77;;
51438;SDS011;38816;51.142;-0.974;2022-11-14T01:31:50;491.52;;;28.20;;
51438;SDS011;38816;51.142;-0.974;2022-11-14T01:34:16;460.42;;;29.00;;
51438;SDS011;38816;51.142;-0.974;2022-11-14T01:36:41;416.42;;;27.23;;
51438;SDS011;38816;51.142;-0.974;2022-11-14T01:39:06;453.70;;;27.88;;
51438;SDS011;38816;51.142;-0.974;2022-11-14T01:41:32;471.90;;;30.30;;
51438;SDS011;38816;51.142;-0.974;2022-11-14T01:43:57;369.48;;;27.48;;
51438;SDS011;38816;51.142;-0.974;2022-11-14T01:46:30;538.38;;;29.70;;
51438;SDS011;38816;51.142;-0.974;2022-11-14T01:51:50;476.50;;;29.35;;
51438;SDS011;38816;51.142;-0.974;2022-11-14T01:54:27;536.20;;;30.20;;
51438;SDS011;38816;51.142;-0.974;2022-11-14T01:56:57;453.00;;;28.77;;
51438;SDS011;38816;51.142;-0.974;2022-11-14T01:59:25;503.52;;;29.02;;
51438;SDS011;38816;51.142;-0.974;2022-11-14T02:01:55;518.05;;;29.38;;
51438;SDS011;38816;51.142;-0.974;2022-11-14T02:04:25;538.00;;;29.85;;
51438;SDS011;38816;51.142;-0.974;2022-11-14T02:06:54;534.85;;;31.67;;
51438;SDS011;38816;51.142;-0.974;2022-11-14T02:09:23;500.27;;;30.05;;
51438;SDS011;38816;51.142;-0.974;2022-11-14T02:11:49;515.40;;;30.92;;
51438;SDS011;38816;51.142;-0.974;2022-11-14T02:14:17;492.80;;;28.60;;
51438;SDS011;38816;51.142;-0.974;2022-11-14T02:16:43;549.45;;;30.95;;
51438;SDS011;38816;51.142;-0.974;2022-11-14T02:19:09;473.15;;;28.50;;
51438;SDS011;38816;51.142;-0.974;2022-11-14T02:21:34;434.23;;;28.33;;
51438;SDS011;38816;51.142;-0.974;2022-11-14T02:24:00;414.30;;;26.95;;
51438;SDS011;38816;51.142;-0.974;2022-11-14T02:26:25;481.77;;;28.20;;
51438;SDS011;38816;51.142;-0.974;2022-11-14T02:28:51;549.47;;;31.10;;
51438;SDS011;38816;51.142;-0.974;2022-11-14T02:31:16;241.35;;;24.58;;
51438;SDS011;38816;51.142;-0.974;2022-11-14T02:33:42;474.38;;;29.20;;
51438;SDS011;38816;51.142;-0.974;2022-11-14T02:36:07;463.70;;;30.00;;
51438;SDS011;38816;51.142;-0.974;2022-11-14T02:38:33;540.15;;;29.13;;
51438;SDS011;38816;51.142;-0.974;2022-11-14T02:40:59;344.77;;;25.73;;
51438;SDS011;38816;51.142;-0.974;2022-11-14T02:43:25;339.58;;;26.23;;
51438;SDS011;38816;51.142;-0.974;2022-11-14T02:45:51;434.05;;;27.20;;
51438;SDS011;38816;51.142;-0.974;2022-11-14T02:48:16;475.38;;;27.33;;
51438;SDS011;38816;51.142;-0.974;2022-11-14T02:50:42;391.40;;;26.33;;
51438;SDS011;38816;51.142;-0.974;2022-11-14T02:53:07;486.83;;;29.48;;
51438;SDS011;38816;51.142;-0.974;2022-11-14T02:55:33;463.77;;;27.60;;
51438;SDS011;38816;51.142;-0.974;2022-11-14T02:57:58;460.92;;;29.25;;
51438;SDS011;38816;51.142;-0.974;2022-11-14T03:00:24;394.40;;;27.10;;
51438;SDS011;38816;51.142;-0.974;2022-11-14T03:02:51;404.58;;;27.38;;
51438;SDS011;38816;51.142;-0.974;2022-11-14T03:05:17;468.27;;;27.55;;
51438;SDS011;38816;51.142;-0.974;2022-11-14T03:07:42;515.60;;;30.52;;
51438;SDS011;38816;51.142;-0.974;2022-11-14T03:10:08;433.40;;;27.13;;
51438;SDS011;38816;51.142;-0.974;2022-11-14T03:12:34;467.38;;;27.70;;
51438;SDS011;38816;51.142;-0.974;2022-11-14T03:14:59;520.92;;;29.25;;
51438;SDS011;38816;51.142;-0.974;2022-11-14T03:17:24;445.48;;;27.60;;
51438;SDS011;38816;51.142;-0.974;2022-11-14T03:19:50;453.88;;;26.83;;
51438;SDS011;38816;51.142;-0.974;2022-11-14T03:22:15;426.30;;;26.52;;
51438;SDS011;38816;51.142;-0.974;2022-11-14T03:24:40;445.60;;;29.40;;
51438;SDS011;38816;51.142;-0.974;2022-11-14T03:27:06;500.70;;;29.35;;
51438;SDS011;38816;51.142;-0.974;2022-11-14T03:29:31;486.17;;;28.25;;
51438;SDS011;38816;51.142;-0.974;2022-11-14T03:31:57;381.15;;;26.27;;
51438;SDS011;38816;51.142;-0.974;2022-11-14T03:34:22;561.20;;;29.83;;
51438;SDS011;38816;51.142;-0.974;2022-11-14T03:36:47;486.48;;;28.45;;
51438;SDS011;38816;51.142;-0.974;2022-11-14T03:39:13;510.65;;;28.30;;
51438;SDS011;38816;51.142;-0.974;2022-11-14T03:41:38;543.92;;;29.95;;
51438;SDS011;38816;51.142;-0.974;2022-11-14T03:44:04;421.33;;;25.95;;
51438;SDS011;38816;51.142;-0.974;2022-11-14T03:46:29;464.13;;;26.23;;
51438;SDS011;38816;51.142;-0.974;2022-11-14T03:48:54;512.80;;;29.13;;
51438;SDS011;38816;51.142;-0.974;2022-11-14T03:51:20;476.77;;;28.75;;
51438;SDS011;38816;51.142;-0.974;2022-11-14T03:53:45;551.83;;;28.85;;
51438;SDS011;38816;51.142;-0.974;2022-11-14T03:56:10;321.85;;;23.83;;
51438;SDS011;38816;51.142;-0.974;2022-11-14T03:58:36;463.45;;;27.27;;
51438;SDS011;38816;51.142;-0.974;2022-11-14T04:01:01;578.05;;;30.10;;
51438;SDS011;38816;51.142;-0.974;2022-11-14T04:03:27;576.30;;;29.42;;
51438;SDS011;38816;51.142;-0.974;2022-11-14T04:05:53;417.23;;;25.38;;
51438;SDS011;38816;51.142;-0.974;2022-11-14T04:08:18;567.85;;;29.13;;
51438;SDS011;38816;51.142;-0.974;2022-11-14T04:10:47;440.13;;;26.88;;
51438;SDS011;38816;51.142;-0.974;2022-11-14T04:13:12;324.95;;;25.83;;
51438;SDS011;38816;51.142;-0.974;2022-11-14T04:15:38;485.00;;;27.23;;
51438;SDS011;38816;51.142;-0.974;2022-11-14T04:18:04;527.15;;;28.25;;
51438;SDS011;38816;51.142;-0.974;2022-11-14T04:20:29;249.00;;;23.77;;
51438;SDS011;38816;51.142;-0.974;2022-11-14T04:22:54;538.47;;;28.08;;
51438;SDS011;38816;51.142;-0.974;2022-11-14T04:25:20;447.77;;;26.15;;
51438;SDS011;38816;51.142;-0.974;2022-11-14T04:27:45;593.70;;;30.92;;
51438;SDS011;38816;51.142;-0.974;2022-11-14T04:30:11;585.35;;;30.33;;
51438;SDS011;38816;51.142;-0.974;2022-11-14T04:32:36;451.77;;;26.60;;
51438;SDS011;38816;51.142;-0.974;2022-11-14T04:35:01;575.80;;;29.08;;
51438;SDS011;38816;51.142;-0.974;2022-11-14T04:37:27;488.73;;;28.38;;
51438;SDS011;38816;51.142;-0.974;2022-11-14T04:39:52;557.35;;;29.05;;
51438;SDS011;38816;51.142;-0.974;2022-11-14T04:42:18;529.00;;;28.42;;
51438;SDS011;38816;51.142;-0.974;2022-11-14T04:44:43;437.90;;;26.25;;
51438;SDS011;38816;51.142;-0.974;2022-11-14T04:47:09;394.27;;;25.80;;
51438;SDS011;38816;51.142;-0.974;2022-11-14T04:49:34;513.15;;;27.63;;
51438;SDS011;38816;51.142;-0.974;2022-11-14T04:52:00;413.58;;;25.25;;
51438;SDS011;38816;51.142;-0.974;2022-11-14T04:54:25;452.83;;;25.48;;
51438;SDS011;38816;51.142;-0.974;2022-11-14T04:56:51;376.20;;;23.40;;
51438;SDS011;38816;51.142;-0.974;2022-11-14T04:59:16;343.95;;;22.52;;
51438;SDS011;38816;51.142;-0.974;2022-11-14T05:01:41;347.70;;;22.50;;
51438;SDS011;38816;51.142;-0.974;2022-11-14T05:04:07;416.13;;;24.85;;
51438;SDS011;38816;51.142;-0.974;2022-11-14T05:06:32;181.05;;;20.30;;
51438;SDS011;38816;51.142;-0.974;2022-11-14T05:08:57;405.98;;;24.52;;
51438;SDS011;38816;51.142;-0.974;2022-11-14T05:11:23;423.73;;;24.27;;
51438;SDS011;38816;51.142;-0.974;2022-11-14T05:13:48;440.92;;;23.92;;
51438;SDS011;38816;51.142;-0.974;2022-11-14T05:16:14;427.65;;;22.80;;
51438;SDS011;38816;51.142;-0.974;2022-11-14T05:18:39;444.05;;;23.90;;
51438;SDS011;38816;51.142;-0.974;2022-11-14T05:21:05;373.10;;;21.63;;
51438;SDS011;38816;51.142;-0.974;2022-11-14T05:23:30;391.10;;;21.42;;
51438;SDS011;38816;51.142;-0.974;2022-11-14T05:26:00;389.88;;;23.45;;
51438;SDS011;38816;51.142;-0.974;2022-11-14T05:28:30;363.55;;;22.48;;
51438;SDS011;38816;51.142;-0.974;2022-11-14T05:31:06;417.92;;;23.63;;
51438;SDS011;38816;51.142;-0.974;2022-11-14T05:33:34;438.50;;;23.65;;
51438;SDS011;38816;51.142;-0.974;2022-11-14T05:36:00;404.98;;;22.83;;
51438;SDS011;38816;51.142;-0.974;2022-11-14T05:38:27;371.60;;;22.23;;
51438;SDS011;38816;51.142;-0.974;2022-11-14T05:40:53;379.67;;;22.65;;
51438;SDS011;38816;51.142;-0.974;2022-11-14T05:43:18;371.58;;;22.25;;
51438;SDS011;38816;51.142;-0.974;2022-11-14T05:45:44;422.63;;;22.38;;
51438;SDS011;38816;51.142;-0.974;2022-11-14T05:48:09;339.52;;;20.88;;
51438;SDS011;38816;51.142;-0.974;2022-11-14T05:50:34;368.42;;;21.85;;
51438;SDS011;38816;51.142;-0.974;2022-11-14T05:53:00;365.67;;;19.75;;
51438;SDS011;38816;51.142;-0.974;2022-11-14T05:55:25;351.02;;;20.30;;
51438;SDS011;38816;51.142;-0.974;2022-11-14T05:57:51;371.13;;;19.75;;
51438;SDS011;38816;51.142;-0.974;2022-11-14T06:00:16;321.50;;;19.00;;
51438;SDS011;38816;51.142;-0.974;2022-11-14T06:02:42;325.73;;;19.27;;
51438;SDS011;38816;51.142;-0.974;2022-11-14T06:05:07;289.85;;;19.63;;
51438;SDS011;38816;51.142;-0.974;2022-11-14T06:07:33;415.60;;;22.25;;
51438;SDS011;38816;51.142;-0.974;2022-11-14T06:09:58;300.88;;;19.50;;
51438;SDS011;38816;51.142;-0.974;2022-11-14T06:12:23;325.83;;;20.23;;
51438;SDS011;38816;51.142;-0.974;2022-11-14T06:14:49;424.08;;;22.52;;
51438;SDS011;38816;51.142;-0.974;2022-11-14T06:17:14;336.23;;;19.83;;
51438;SDS011;38816;51.142;-0.974;2022-11-14T06:19:39;454.08;;;23.60;;
51438;SDS011;38816;51.142;-0.974;2022-11-14T06:22:05;300.27;;;19.85;;
51438;SDS011;38816;51.142;-0.974;2022-11-14T06:24:30;457.77;;;22.67;;
51438;SDS011;38816;51.142;-0.974;2022-11-14T06:26:56;307.88;;;19.70;;
51438;SDS011;38816;51.142;-0.974;2022-11-14T06:29:21;389.08;;;20.45;;
51438;SDS011;38816;51.142;-0.974;2022-11-14T06:31:46;331.85;;;20.38;;
51438;SDS011;38816;51.142;-0.974;2022-11-14T06:34:12;437.63;;;21.67;;
51438;SDS011;38816;51.142;-0.974;2022-11-14T06:36:37;324.35;;;20.02;;
51438;SDS011;38816;51.142;-0.974;2022-11-14T06:39:02;234.52;;;16.77;;
51438;SDS011;38816;51.142;-0.974;2022-11-14T06:41:28;280.48;;;18.35;;
51438;SDS011;38816;51.142;-0.974;2022-11-14T06:43:53;336.95;;;19.25;;
51438;SDS011;38816;51.142;-0.974;2022-11-14T06:46:19;298.85;;;18.88;;
51438;SDS011;38816;51.142;-0.974;2022-11-14T06:48:46;330.88;;;20.23;;
51438;SDS011;38816;51.142;-0.974;2022-11-14T06:51:12;204.52;;;17.40;;
51438;SDS011;38816;51.142;-0.974;2022-11-14T06:53:39;338.20;;;19.30;;
51438;SDS011;38816;51.142;-0.974;2022-11-14T06:56:06;241.43;;;17.00;;
51438;SDS011;38816;51.142;-0.974;2022-11-14T06:58:34;292.17;;;18.92;;
51438;SDS011;38816;51.142;-0.974;2022-11-14T07:01:06;380.83;;;21.23;;
51438;SDS011;38816;51.142;-0.974;2022-11-14T07:03:35;441.53;;;20.93;;
51438;SDS011;38816;51.142;-0.974;2022-11-14T07:06:00;389.98;;;21.85;;
51438;SDS011;38816;51.142;-0.974;2022-11-14T07:08:27;399.67;;;20.45;;
51438;SDS011;38816;51.142;-0.974;2022-11-14T07:10:53;205.13;;;16.92;;
51438;SDS011;38816;51.142;-0.974;2022-11-14T07:13:18;240.98;;;17.45;;
51438;SDS011;38816;51.142;-0.974;2022-11-14T07:15:50;382.00;;;20.27;;
51438;SDS011;38816;51.142;-0.974;2022-11-14T07:18:16;219.90;;;17.23;;
51438;SDS011;38816;51.142;-0.974;2022-11-14T07:20:42;296.13;;;18.67;;
51438;SDS011;38816;51.142;-0.974;2022-11-14T07:23:07;391.98;;;20.65;;
51438;SDS011;38816;51.142;-0.974;2022-11-14T07:25:32;349.67;;;19.67;;
51438;SDS011;38816;51.142;-0.974;2022-11-14T07:27:58;369.00;;;20.52;;
51438;SDS011;38816;51.142;-0.974;2022-11-14T07:30:23;393.30;;;20.98;;
51438;SDS011;38816;51.142;-0.974;2022-11-14T07:32:55;277.80;;;18.50;;
51438;SDS011;38816;51.142;-0.974;2022-11-14T07:35:21;339.23;;;20.30;;
51438;SDS011;38816;51.142;-0.974;2022-11-14T07:37:47;316.00;;;20.45;;
51438;SDS011;38816;51.142;-0.974;2022-11-14T07:40:13;364.67;;;22.58;;
51438;SDS011;38816;51.142;-0.974;2022-11-14T07:42:38;340.25;;;21.13;;
51438;SDS011;38816;51.142;-0.974;2022-11-14T07:45:04;289.88;;;20.10;;
51438;SDS011;38816;51.142;-0.974;2022-11-14T07:47:29;276.13;;;18.58;;
51438;SDS011;38816;51.142;-0.974;2022-11-14T07:49:55;351.75;;;20.13;;
51438;SDS011;38816;51.142;-0.974;2022-11-14T07:52:20;355.35;;;20.23;;
51438;SDS011;38816;51.142;-0.974;2022-11-14T07:54:46;334.33;;;20.30;;
51438;SDS011;38816;51.142;-0.974;2022-11-14T07:57:11;300.58;;;20.60;;
51438;SDS011;38816;51.142;-0.974;2022-11-14T07:59:36;339.60;;;21.58;;
51438;SDS011;38816;51.142;-0.974;2022-11-14T08:02:02;200.50;;;18.70;;
51438;SDS011;38816;51.142;-0.974;2022-11-14T08:04:27;303.88;;;21.13;;
51438;SDS011;38816;51.142;-0.974;2022-11-14T08:06:52;280.23;;;22.13;;
51438;SDS011;38816;51.142;-0.974;2022-11-14T08:09:18;201.68;;;20.08;;
51438;SDS011;38816;51.142;-0.974;2022-11-14T08:11:43;291.90;;;23.45;;
51438;SDS011;38816;51.142;-0.974;2022-11-14T08:14:12;281.48;;;22.35;;
51438;SDS011;38816;51.142;-0.974;2022-11-14T08:16:37;321.83;;;24.30;;
51438;SDS011;38816;51.142;-0.974;2022-11-14T08:19:03;319.52;;;23.27;;
51438;SDS011;38816;51.142;-0.974;2022-11-14T08:21:28;310.95;;;23.45;;
51438;SDS011;38816;51.142;-0.974;2022-11-14T08:23:54;320.50;;;23.08;;
51438;SDS011;38816;51.142;-0.974;2022-11-14T08:26:19;393.38;;;24.02;;
51438;SDS011;38816;51.142;-0.974;2022-11-14T08:28:44;428.13;;;25.67;;
51438;SDS011;38816;51.142;-0.974;2022-11-14T08:31:10;312.63;;;23.67;;
51438;SDS011;38816;51.142;-0.974;2022-11-14T08:33:37;296.67;;;23.90;;
51438;SDS011;38816;51.142;-0.974;2022-11-14T08:36:04;220.95;;;23.35;;
51438;SDS011;38816;51.142;-0.974;2022-11-14T08:38:31;211.95;;;23.00;;
51438;SDS011;38816;51.142;-0.974;2022-11-14T08:41:01;254.38;;;24.30;;
51438;SDS011;38816;51.142;-0.974;2022-11-14T08:43:28;336.80;;;26.55;;
51438;SDS011;38816;51.142;-0.974;2022-11-14T08:45:58;367.15;;;26.50;;
51438;SDS011;38816;51.142;-0.974;2022-11-14T08:48:25;307.30;;;26.35;;
51438;SDS011;38816;51.142;-0.974;2022-11-14T08:50:50;336.75;;;26.27;;
51438;SDS011;38816;51.142;-0.974;2022-11-14T08:53:15;278.48;;;24.42;;
51438;SDS011;38816;51.142;-0.974;2022-11-14T08:55:44;313.20;;;26.65;;
51438;SDS011;38816;51.142;-0.974;2022-11-14T08:58:10;205.18;;;23.75;;
51438;SDS011;38816;51.142;-0.974;2022-11-14T09:00:36;259.75;;;25.77;;
51438;SDS011;38816;51.142;-0.974;2022-11-14T09:03:10;257.60;;;26.27;;
51438;SDS011;38816;51.142;-0.974;2022-11-14T09:05:40;156.55;;;24.02;;
51438;SDS011;38816;51.142;-0.974;2022-11-14T09:08:06;87.80;;;23.13;;
51438;SDS011;38816;51.142;-0.974;2022-11-14T09:10:32;114.32;;;23.02;;
51438;SDS011;38816;51.142;-0.974;2022-11-14T09:12:58;106.20;;;23.45;;
51438;SDS011;38816;51.142;-0.974;2022-11-14T09:15:28;104.72;;;24.73;;
51438;SDS011;38816;51.142;-0.974;2022-11-14T09:17:54;73.88;;;21.88;;
51438;SDS011;38816;51.142;-0.974;2022-11-14T09:20:21;94.60;;;23.65;;
51438;SDS011;38816;51.142;-0.974;2022-11-14T09:22:48;81.88;;;22.92;;
51438;SDS011;38816;51.142;-0.974;2022-11-14T09:25:16;101.70;;;22.77;;
51438;SDS011;38816;51.142;-0.974;2022-11-14T09:27:42;81.85;;;21.40;;
51438;SDS011;38816;51.142;-0.974;2022-11-14T09:30:08;70.57;;;21.13;;
51438;SDS011;38816;51.142;-0.974;2022-11-14T09:32:34;81.72;;;22.02;;
51438;SDS011;38816;51.142;-0.974;2022-11-14T09:34:59;85.80;;;21.70;;
51438;SDS011;38816;51.142;-0.974;2022-11-14T09:37:25;77.63;;;22.55;;
51438;SDS011;38816;51.142;-0.974;2022-11-14T09:39:50;61.88;;;22.00;;
51438;SDS011;38816;51.142;-0.974;2022-11-14T09:42:27;62.45;;;22.45;;
51438;SDS011;38816;51.142;-0.974;2022-11-14T09:45:14;64.63;;;21.27;;
51438;SDS011;38816;51.142;-0.974;2022-11-14T09:47:47;68.43;;;22.00;;
51438;SDS011;38816;51.142;-0.974;2022-11-14T09:51:00;57.55;;;20.85;;
51438;SDS011;38816;51.142;-0.974;2022-11-14T09:56:02;47.78;;;20.30;;
51438;SDS011;38816;51.142;-0.974;2022-11-14T09:58:27;48.90;;;19.58;;
51438;SDS011;38816;51.142;-0.974;2022-11-14T10:01:04;44.85;;;18.80;;
51438;SDS011;38816;51.142;-0.974;2022-11-14T10:06:24;39.75;;;18.50;;
51438;SDS011;38816;51.142;-0.974;2022-11-14T10:11:43;38.00;;;18.17;;
51438;SDS011;38816;51.142;-0.974;2022-11-14T10:14:22;45.03;;;19.65;;
51438;SDS011;38816;51.142;-0.974;2022-11-14T10:25:27;34.95;;;17.50;;
51438;SDS011;38816;51.142;-0.974;2022-11-14T10:30:39;32.33;;;17.45;;
51438;SDS011;38816;51.142;-0.974;2022-11-14T10:38:30;38.67;;;18.20;;
51438;SDS011;38816;51.142;-0.974;2022-11-14T10:41:03;30.05;;;17.13;;
51438;SDS011;38816;51.142;-0.974;2022-11-14T10:48:58;35.78;;;14.73;;
51438;SDS011;38816;51.142;-0.974;2022-11-14T10:56:24;23.23;;;13.88;;
51438;SDS011;38816;51.142;-0.974;2022-11-14T10:58:49;27.55;;;12.25;;
51438;SDS011;38816;51.142;-0.974;2022-11-14T11:01:34;26.98;;;14.55;;
51438;SDS011;38816;51.142;-0.974;2022-11-14T11:04:13;28.52;;;12.55;;
51438;SDS011;38816;51.142;-0.974;2022-11-14T11:06:39;27.85;;;12.98;;
51438;SDS011;38816;51.142;-0.974;2022-11-14T11:09:10;28.35;;;12.63;;
51438;SDS011;38816;51.142;-0.974;2022-11-14T11:11:58;18.85;;;11.73;;
51438;SDS011;38816;51.142;-0.974;2022-11-14T11:14:26;26.98;;;13.52;;
51438;SDS011;38816;51.142;-0.974;2022-11-14T11:19:40;30.60;;;15.52;;
51438;SDS011;38816;51.142;-0.974;2022-11-14T11:22:47;24.38;;;14.63;;
51438;SDS011;38816;51.142;-0.974;2022-11-14T11:27:26;22.30;;;13.87;;
51438;SDS011;38816;51.142;-0.974;2022-11-14T11:30:04;22.42;;;14.20;;
51438;SDS011;38816;51.142;-0.974;2022-11-14T11:32:32;23.00;;;12.60;;
51438;SDS011;38816;51.142;-0.974;2022-11-14T11:34:59;25.35;;;10.93;;
51438;SDS011;38816;51.142;-0.974;2022-11-14T11:37:35;21.05;;;10.25;;
51438;SDS011;38816;51.142;-0.974;2022-11-14T11:40:05;22.83;;;9.30;;
51438;SDS011;38816;51.142;-0.974;2022-11-14T11:45:15;14.13;;;7.70;;
51438;SDS011;38816;51.142;-0.974;2022-11-14T11:50:22;17.77;;;8.20;;
51438;SDS011;38816;51.142;-0.974;2022-11-14T11:55:33;13.73;;;8.25;;
51438;SDS011;38816;51.142;-0.974;2022-11-14T11:58:10;13.45;;;9.18;;
51438;SDS011;38816;51.142;-0.974;2022-11-14T12:00:43;21.95;;;8.52;;
51438;SDS011;38816;51.142;-0.974;2022-11-14T12:03:10;15.25;;;8.68;;
51438;SDS011;38816;51.142;-0.974;2022-11-14T12:11:39;18.13;;;7.75;;
51438;SDS011;38816;51.142;-0.974;2022-11-14T12:20:24;15.68;;;7.50;;
51438;SDS011;38816;51.142;-0.974;2022-11-14T12:31:11;15.88;;;7.47;;
51438;SDS011;38816;51.142;-0.974;2022-11-14T12:33:49;18.17;;;6.80;;
51438;SDS011;38816;51.142;-0.974;2022-11-14T12:36:26;12.32;;;6.57;;
51438;SDS011;38816;51.142;-0.974;2022-11-14T12:38:54;18.02;;;6.53;;
51438;SDS011;38816;51.142;-0.974;2022-11-14T12:41:23;13.40;;;5.90;;
51438;SDS011;38816;51.142;-0.974;2022-11-14T12:43:51;14.13;;;5.85;;
51438;SDS011;38816;51.142;-0.974;2022-11-14T12:46:16;9.82;;;5.90;;
51438;SDS011;38816;51.142;-0.974;2022-11-14T12:48:43;15.40;;;6.85;;
51438;SDS011;38816;51.142;-0.974;2022-11-14T12:53:53;17.60;;;6.53;;
51438;SDS011;38816;51.142;-0.974;2022-11-14T12:56:24;12.25;;;6.47;;
51438;SDS011;38816;51.142;-0.974;2022-11-14T12:59:16;13.40;;;6.55;;
51438;SDS011;38816;51.142;-0.974;2022-11-14T13:11:49;13.85;;;5.93;;
51438;SDS011;38816;51.142;-0.974;2022-11-14T13:17:34;13.50;;;5.80;;
51438;SDS011;38816;51.142;-0.974;2022-11-14T13:20:28;15.63;;;6.18;;
51438;SDS011;38816;51.142;-0.974;2022-11-14T13:34:01;10.85;;;5.55;;
51438;SDS011;38816;51.142;-0.974;2022-11-14T13:40:10;13.20;;;5.20;;
51438;SDS011;38816;51.142;-0.974;2022-11-14T13:51:00;14.43;;;5.22;;
51438;SDS011;38816;51.142;-0.974;2022-11-14T13:53:29;10.77;;;5.32;;
51438;SDS011;38816;51.142;-0.974;2022-11-14T14:07:03;8.30;;;5.05;;
51438;SDS011;38816;51.142;-0.974;2022-11-14T14:09:52;12.25;;;5.43;;
51438;SDS011;38816;51.142;-0.974;2022-11-14T14:15:30;11.88;;;5.22;;
51438;SDS011;38816;51.142;-0.974;2022-11-14T14:20:46;12.02;;;5.20;;
51438;SDS011;38816;51.142;-0.974;2022-11-14T14:23:30;13.82;;;5.72;;
51438;SDS011;38816;51.142;-0.974;2022-11-14T14:31:42;10.45;;;5.18;;
51438;SDS011;38816;51.142;-0.974;2022-11-14T14:34:24;12.15;;;5.30;;
51438;SDS011;38816;51.142;-0.974;2022-11-14T14:36:53;9.95;;;4.80;;
51438;SDS011;38816;51.142;-0.974;2022-11-14T14:39:21;11.48;;;5.05;;
51438;SDS011;38816;51.142;-0.974;2022-11-14T14:41:52;15.32;;;5.57;;
51438;SDS011;38816;51.142;-0.974;2022-11-14T14:44:26;11.60;;;5.45;;
51438;SDS011;38816;51.142;-0.974;2022-11-14T14:46:56;13.27;;;5.45;;
51438;SDS011;38816;51.142;-0.974;2022-11-14T14:49:23;13.48;;;5.47;;
51438;SDS011;38816;51.142;-0.974;2022-11-14T14:51:52;12.73;;;5.40;;
51438;SDS011;38816;51.142;-0.974;2022-11-14T14:54:21;17.70;;;6.22;;
51438;SDS011;38816;51.142;-0.974;2022-11-14T14:56:53;13.33;;;5.93;;
51438;SDS011;38816;51.142;-0.974;2022-11-14T14:59:24;16.70;;;6.05;;
51438;SDS011;38816;51.142;-0.974;2022-11-14T15:01:52;13.63;;;6.05;;
51438;SDS011;38816;51.142;-0.974;2022-11-14T15:04:21;16.15;;;5.65;;
51438;SDS011;38816;51.142;-0.974;2022-11-14T15:06:49;14.82;;;6.43;;
51438;SDS011;38816;51.142;-0.974;2022-11-14T15:09:33;13.10;;;5.65;;
51438;SDS011;38816;51.142;-0.974;2022-11-14T15:11:58;12.55;;;5.97;;
51438;SDS011;38816;51.142;-0.974;2022-11-14T15:14:26;11.95;;;5.95;;
51438;SDS011;38816;51.142;-0.974;2022-11-14T15:16:54;12.48;;;5.88;;
51438;SDS011;38816;51.142;-0.974;2022-11-14T15:19:23;13.68;;;5.63;;
51438;SDS011;38816;51.142;-0.974;2022-11-14T15:22:00;17.77;;;6.57;;
51438;SDS011;38816;51.142;-0.974;2022-11-14T15:24:28;16.35;;;6.78;;
51438;SDS011;38816;51.142;-0.974;2022-11-14T15:26:53;15.13;;;6.75;;
51438;SDS011;38816;51.142;-0.974;2022-11-14T15:29:20;14.93;;;6.13;;
51438;SDS011;38816;51.142;-0.974;2022-11-14T15:31:48;13.52;;;6.45;;
51438;SDS011;38816;51.142;-0.974;2022-11-14T15:34:21;10.60;;;6.15;;
51438;SDS011;38816;51.142;-0.974;2022-11-14T15:39:38;11.88;;;6.60;;
51438;SDS011;38816;51.142;-0.974;2022-11-14T15:42:17;17.38;;;6.68;;
51438;SDS011;38816;51.142;-0.974;2022-11-14T15:44:43;14.40;;;6.57;;
51438;SDS011;38816;51.142;-0.974;2022-11-14T15:47:11;17.63;;;7.15;;
51438;SDS011;38816;51.142;-0.974;2022-11-14T15:50:00;12.85;;;7.10;;
51438;SDS011;38816;51.142;-0.974;2022-11-14T15:52:35;14.00;;;7.10;;
51438;SDS011;38816;51.142;-0.974;2022-11-14T15:55:03;15.85;;;7.40;;
51438;SDS011;38816;51.142;-0.974;2022-11-14T15:57:36;24.63;;;8.25;;
51438;SDS011;38816;51.142;-0.974;2022-11-14T16:00:02;12.50;;;7.72;;
51438;SDS011;38816;51.142;-0.974;2022-11-14T16:02:29;16.77;;;7.75;;
51438;SDS011;38816;51.142;-0.974;2022-11-14T16:04:57;21.80;;;7.90;;
51438;SDS011;38816;51.142;-0.974;2022-11-14T16:07:24;18.63;;;8.45;;
51438;SDS011;38816;51.142;-0.974;2022-11-14T16:09:51;20.33;;;8.90;;
51438;SDS011;38816;51.142;-0.974;2022-11-14T16:12:17;23.00;;;9.50;;
51438;SDS011;38816;51.142;-0.974;2022-11-14T16:14:42;19.17;;;10.32;;
51438;SDS011;38816;51.142;-0.974;2022-11-14T16:17:15;25.50;;;9.95;;
51438;SDS011;38816;51.142;-0.974;2022-11-14T16:19:42;22.55;;;9.70;;
51438;SDS011;38816;51.142;-0.974;2022-11-14T16:22:09;20.50;;;9.35;;
51438;SDS011;38816;51.142;-0.974;2022-11-14T16:24:37;18.60;;;9.15;;